• Join FlightAware (Why Join?)
  • Login
  • US Flag 
04:41AM EDT


 

Airport Tracker/Info


-or-


 

Live Flight TrackerFlight Track Log ✈ EJA277 ✈ 04-May-2013 ✈ KIND - KSDF

Flight Track Log - Related Links

Times and Time Zones

All times are in EDT time to prevent confusion due to time zone crossing. See the EJA277 flight status page for this flight to view local times or setup timezone preferences in your user account.

Time Position Orientation Groundspeed Altitude Reporting Facility
EDT Latitude Longitude Course Direction KTS MPH feet Rate Location/Type
04:12PM 39.7000 -86.3000 237° Southwest 167 192 1,600  Level Indianapolis TRACON
04:12PM 39.6833 -86.3333 237° Southwest 208 239 2,700 3,060 Climbing Indianapolis TRACON
04:14PM 39.6167 -86.4000 218° Southwest 284 327 6,900 3,840 Climbing Indianapolis TRACON
04:14PM 39.5500 -86.3833 169° South 284 327 10,400 3,240 Climbing Indianapolis TRACON
04:15PM 39.5275 -86.3803 174° South 278 320 10,800 420 Climbing Indianapolis Center
04:16PM 39.4342 -86.3658 173° South 323 372 11,000 60 Climbing Indianapolis Center
04:17PM 39.3325 -86.3494 173° South 349 402 11,000  Level Indianapolis Center
04:18PM 39.2297 -86.3328 173° South 366 421 11,000  Level Indianapolis Center
04:19PM 39.1267 -86.3164 173° South 372 428 11,000  Level Indianapolis Center
04:20PM 39.0233 -86.2989 173° South 375 432 11,000  Level Indianapolis Center
04:21PM 38.8992 -86.2794 173° South 375 432 11,000  Level Indianapolis Center
04:22PM 38.8119 -86.2664 173° South 373 429 11,100  Climbing Indianapolis Center
04:23PM 38.7064 -86.2503 173° South 376 433 11,100 -480 Level Indianapolis Center
04:24PM 38.6128 -86.2072 160° South 291 335 10,200 -1,440 Descending Indianapolis Center
04:25PM 38.5722 -86.1353 126° Southeast 254 292 8,200 -1,980 Descending Indianapolis Center
04:26PM 38.5314 -86.0664 127° Southeast 243 280 6,200 -1,080 Descending Indianapolis Center
04:27PM 38.4931 -85.9983 126° Southeast 237 273 6,000 -840 Descending Indianapolis Center
04:28PM 38.4547 -85.9300 126° Southeast 236 272 4,600 -1,440 Descending Indianapolis Center
04:29PM 38.4147 -85.8606 126° Southeast 239 275 3,100 -840 Descending Indianapolis Center
04:30PM 38.3733 -85.7944 129° Southeast 239 275 3,000 -60 Descending Indianapolis Center
04:31PM 38.3144 -85.7739 165° South 226 260 3,000 -300 Level Indianapolis Center
04:32PM 38.2697 -85.7592 166° South 194 223 2,400 -600 Descending Indianapolis Center
04:34PM 38.1943 -85.7075 152° Southeast  Level FlightAware Approximate
04:41PM 38.1667 -85.7333 297° West  Level FlightAware Approximate
04:42PM 38.1741 -85.7365 297° West  Level Estimated